ADDS TAF Data INFO
IDs: Format: Raw Decoded Include METARs

Data at: 1122 UTC 17 Aug 2017

Region: TOP
KATL 170954Z 1710/1812 26005KT P6SM SCT250
  FM171400 27005KT P6SM SCT030 SCT200
  FM172000 26007KT P6SM SCT050 BKN120
  PROB30 1720/1724 4SM -TSRA BKN035CB
  FM180100 25004KT P6SM FEW050 SCT250


KBOS 171120Z 1712/1818 30004KT P6SM BKN250
  FM171500 15004KT P6SM BKN250
  FM171800 14010KT P6SM SCT250
  FM180000 18006KT P6SM SCT250
  FM180500 23004KT P6SM FEW200
  FM181600 15007KT P6SM VCSH OVC050


KBWI 170859Z 1709/1812 00000KT 4SM BR FEW001 SCT050
  TEMPO 1709/1712 2SM BR BKN001
  FM171200 VRB03KT P6SM BKN050
  FM171800 16007KT P6SM VCSH BKN040
  FM180900 VRB03KT P6SM BKN060


KCLE 170940Z 1710/1812 16010KT P6SM SCT100 BKN200
  FM171300 20010KT P6SM SCT035 OVC080
  TEMPO 1714/1718 3SM -TSRA OVC035CB
  FM171800 20012G20KT P6SM SCT030 BKN050
  TEMPO 1718/1722 3SM -TSRA OVC030CB
  FM172200 20010G20KT P6SM VCTS SCT040CB BKN060
  FM180200 22008KT P6SM SCT060 BKN200


KCLT 171018Z 1710/1806 12003KT P6SM FEW100
  TEMPO 1710/1712 6SM BR
  FM171400 24004KT P6SM FEW060
  FM171800 22006KT P6SM SCT050
  PROB30 1720/1724 4SM -TSRA BKN040CB
  FM180300 19004KT P6SM FEW060 BKN200


KCVG 170904Z 1709/1812 19006KT P6SM VCTS SCT035CB BKN080
  FM171200 20007KT P6SM VCTS SCT050CB BKN120
  FM171700 22011G18KT P6SM -SHRA VCTS BKN040CB
  FM180300 22008KT P6SM BKN070


KDCA 170859Z 1709/1806 00000KT P6SM SCT050 SCT080
  FM171200 VRB03KT P6SM BKN050
  FM171800 18007KT P6SM VCSH BKN050


KDEN 170901Z 1709/1812 19010KT P6SM FEW120
  FM171500 24007KT P6SM FEW110
  FM171800 33008KT P6SM SCT090 SCT130
  FM180100 25010KT P6SM SCT090 BKN130
  FM180300 21010KT P6SM FEW100 SCT150


KDFW 170856Z 1709/1812 19012KT P6SM VCTS SCT035CB BKN090
  FM171000 35013KT P6SM VCTS SCT035CB BKN090
  TEMPO 1711/1713 5SM -TSRA BKN025CB
  FM171300 20012KT P6SM VCTS SCT035CB BKN090
  FM171400 22009KT P6SM VCSH SCT060 BKN090
  FM171600 20009KT P6SM FEW015 SCT060


KDTW 171120Z 1712/1818 16006KT 6SM -SHRA BKN035 OVC060
  TEMPO 1712/1715 3SM SHRA SCT018 BKN030 OVC050
  FM171500 19011KT 5SM SHRA BR BKN018 OVC040
  FM171900 20013G20KT P6SM SCT028 BKN035 BKN150
  TEMPO 1721/1724 1 1/2SM +TSRA BKN028CB OVC080
  FM180000 21010KT P6SM SCT030 BKN045
  FM180800 22008KT P6SM SCT022
  FM181400 24014G22KT P6SM BKN028


KEWR 171120Z 1712/1818 03007KT P6SM FEW250
  FM171700 15009KT P6SM FEW060 SCT250
  FM172300 17006KT P6SM SCT040 BKN200
  FM180500 17005KT P6SM VCSH BKN040 OVC100
  FM181000 16008KT P6SM -SHRA BKN040 OVC100
  FM181500 16010G16KT 5SM -RA BR OVC040


KFLL 171011Z 1710/1806 14005KT P6SM SCT025
  FM171500 11012KT P6SM SCT030 SCT250
  FM180000 13006KT P6SM FEW030 FEW250


KIAD 170859Z 1709/1812 00000KT 6SM BR SCT050 SCT080
  TEMPO 1709/1712 3SM BR
  FM171200 00000KT P6SM BKN050
  FM171800 19006KT P6SM VCSH BKN050


KIAH 170901Z 1709/1812 18008KT P6SM FEW020 SCT035 SCT250
  FM171400 20008KT P6SM SCT025
  FM171900 19008KT P6SM VCSH SCT045
  FM180200 17007KT P6SM SCT250


KJFK 171120Z 1712/1818 03007KT P6SM FEW250
  FM171700 17009KT P6SM FEW060 SCT250
  FM180000 17008KT P6SM SCT040 BKN200
  FM180600 18006KT P6SM VCSH BKN040 OVC100
  FM181100 18008KT P6SM -SHRA BKN040 OVC100
  FM181500 17010G17KT 5SM -RA BR OVC040


KLAS 170855Z 1709/1812 22005KT P6SM SKC
  FM171800 09007KT P6SM FEW120
  FM180000 15007KT P6SM FEW120
  FM180400 19008KT P6SM SKC
  FM181000 VRB05KT P6SM SKC


KLAX 170844Z 1709/1812 25006KT P6SM SKC
  FM171300 VRB03KT P6SM BKN015
  FM171800 26010KT P6SM SKC
  FM180400 26008KT P6SM SKC
  FM180900 26006KT P6SM OVC015


KLGA 171120Z 1712/1812 05006KT P6SM FEW060 FEW250
  FM171900 16009KT P6SM FEW060 SCT250
  FM180000 16008KT P6SM SCT040 BKN200
  FM180600 17006KT P6SM VCSH BKN040 OVC100
  FM181100 18006KT P6SM -SHRA BKN040 OVC100


KMCO 171120Z 1712/1812 VRB03KT P6SM FEW030
  FM171400 25005KT P6SM FEW030 SCT250
  FM172000 18008KT P6SM VCTS SCT040CB BKN100
  FM180000 VRB04KT P6SM FEW035 SCT150 BKN250


KMDW 171120Z 1712/1812 21012KT P6SM VCSH SCT010 BKN015 OVC035
  TEMPO 1712/1714 4SM SHRA BR
  FM171500 22012G18KT P6SM SCT025 BKN030
  FM171700 24018G26KT P6SM BKN050
  FM180100 26013G20KT P6SM BKN050
  FM180600 28012KT P6SM SCT040


KMEM 170855Z 1709/1806 19010KT P6SM SCT008
  FM171000 21011KT P6SM OVC008
  FM171500 21011KT P6SM VCSH BKN015
  FM171700 22012G17KT P6SM VCTS SCT025CB BKN050
  TEMPO 1717/1720 6SM -SHRA BKN025
  FM172100 23008KT P6SM SCT035 BKN150
  FM180100 21005KT P6SM FEW040 SCT250


KMIA 171011Z 1710/1806 VRB03KT P6SM SCT025 SCT250
  FM171500 11010KT P6SM SCT040 SCT250
  FM180000 13006KT P6SM FEW040 FEW250


KMSP 171003Z 1710/1812 11008KT 6SM BR VCSH OVC009
  TEMPO 1710/1712 4SM -SHRA BR SCT009 BKN020
  FM171200 26009KT 4SM -RA BR OVC007
  FM171600 30012G20KT P6SM OVC008
  FM172000 30017G25KT P6SM BKN018
  FM180000 31013G20KT P6SM SCT020 BKN040
  FM180200 32007KT P6SM SCT040 SCT250


KORD 171120Z 1712/1818 21012KT P6SM VCSH SCT010 BKN015 OVC035
  TEMPO 1712/1714 4SM SHRA BR
  FM171500 22012G18KT P6SM SCT025 BKN030
  FM171700 24018G26KT P6SM BKN050
  FM180100 26013G20KT P6SM BKN050
  FM180600 28012G16KT P6SM SCT040
  FM181500 29012KT P6SM SCT040


KPDX 170850Z 1709/1806 32004KT P6SM BKN025
  FM171900 31006KT P6SM FEW030


KPHL 170900Z 1709/1812 00000KT P6SM FEW250
  FM171300 08005KT P6SM FEW250
  FM171500 15005KT P6SM SCT070 SCT150
  FM171900 18007KT P6SM SCT060 BKN150
  FM180700 16007KT P6SM SCT020 OVC035
  PROB30 1808/1812 5SM -SHRA OVC010


KPHX 171120Z 1712/1818 10005KT P6SM SKC
  FM172000 17006KT P6SM SKC
  FM172300 27006KT P6SM SKC
  FM180900 11005KT P6SM SKC


KPIT 171120Z 1712/1818 11003KT P6SM BKN250
  FM171600 18005KT P6SM BKN100
  FM172100 18005KT P6SM VCTS BKN050CB
  FM180600 22005KT 5SM -SHRA BR OVC035
  FM181000 22006KT P6SM VCSH BKN020


KSAN 171120Z 1712/1818 VRB02KT P6SM BKN015
  FM171600 VRB04KT P6SM FEW018
  FM171900 29010KT P6SM SKC
  FM180200 VRB04KT P6SM SCT012
  FM180700 VRB02KT P6SM BKN012
  FM181600 VRB04KT P6SM SCT015


KSEA 170902Z 1709/1812 21004KT P6SM OVC018
  FM171100 VRB03KT P6SM OVC011
  FM171900 VRB03KT P6SM BKN018
  FM172000 VRB03KT P6SM SCT250
  FM172200 34007KT P6SM SCT250


KSFO 171120Z 1712/1818 26006KT P6SM BKN015
  FM171500 35006KT P6SM SCT015
  TEMPO 1715/1716 BKN015
  FM171800 33012KT P6SM FEW015
  FM172100 29015KT P6SM FEW015
  FM180400 30008KT P6SM FEW014
  FM181000 29006KT P6SM SCT013
  TEMPO 1811/1815 BKN012


KSLC 171120Z 1712/1818 17006KT P6SM SCT150
  FM171900 31008KT P6SM SCT080 SCT150
  FM180300 17006KT P6SM SKC


KSTL 170905Z 1709/1812 22010KT P6SM VCSH BKN035
  FM171200 24009KT P6SM BKN020
  FM171800 27012KT P6SM SCT030
  FM180100 27007KT P6SM SKC


KTPA 170906Z 1709/1806 VRB03KT P6SM FEW030 SCT250
  FM171600 26007KT P6SM VCTS SCT025CB BKN250
  FM172100 31007KT P6SM VCTS FEW035CB BKN050
  FM180200 34003KT P6SM SCT050 BKN250